sensor_id;sensor_type;location;lat;lon;timestamp;P1;durP1;ratioP1;P2;durP2;ratioP2
78322;SDS011;67583;50.616;-3.404;2023-02-07T00:02:13;25.88;;;13.60;;
78322;SDS011;67583;50.616;-3.404;2023-02-07T00:04:44;18.60;;;11.77;;
78322;SDS011;67583;50.616;-3.404;2023-02-07T00:07:17;23.58;;;10.98;;
78322;SDS011;67583;50.616;-3.404;2023-02-07T00:09:50;24.77;;;10.57;;
78322;SDS011;67583;50.616;-3.404;2023-02-07T00:12:22;26.40;;;10.63;;
78322;SDS011;67583;50.616;-3.404;2023-02-07T00:14:54;20.48;;;10.02;;
78322;SDS011;67583;50.616;-3.404;2023-02-07T00:17:29;18.60;;;9.60;;
78322;SDS011;67583;50.616;-3.404;2023-02-07T00:20:00;22.75;;;11.90;;
78322;SDS011;67583;50.616;-3.404;2023-02-07T00:22:33;22.60;;;10.80;;
78322;SDS011;67583;50.616;-3.404;2023-02-07T00:25:05;23.58;;;10.05;;
78322;SDS011;67583;50.616;-3.404;2023-02-07T00:27:37;29.65;;;10.40;;
78322;SDS011;67583;50.616;-3.404;2023-02-07T00:30:07;19.58;;;11.15;;
78322;SDS011;67583;50.616;-3.404;2023-02-07T00:32:40;22.58;;;10.32;;
78322;SDS011;67583;50.616;-3.404;2023-02-07T00:35:11;15.98;;;9.88;;
78322;SDS011;67583;50.616;-3.404;2023-02-07T00:37:44;23.40;;;10.45;;
78322;SDS011;67583;50.616;-3.404;2023-02-07T00:40:17;21.02;;;9.57;;
78322;SDS011;67583;50.616;-3.404;2023-02-07T00:42:49;17.85;;;9.10;;
78322;SDS011;67583;50.616;-3.404;2023-02-07T00:45:20;18.38;;;9.23;;
78322;SDS011;67583;50.616;-3.404;2023-02-07T00:47:51;15.73;;;9.23;;
78322;SDS011;67583;50.616;-3.404;2023-02-07T00:50:23;13.80;;;8.75;;
78322;SDS011;67583;50.616;-3.404;2023-02-07T00:52:54;20.48;;;10.25;;
78322;SDS011;67583;50.616;-3.404;2023-02-07T00:55:25;15.93;;;8.93;;
78322;SDS011;67583;50.616;-3.404;2023-02-07T00:57:56;16.63;;;8.82;;
78322;SDS011;67583;50.616;-3.404;2023-02-07T01:00:24;17.00;;;9.25;;
78322;SDS011;67583;50.616;-3.404;2023-02-07T01:02:50;16.30;;;9.75;;
78322;SDS011;67583;50.616;-3.404;2023-02-07T01:05:15;18.33;;;8.60;;
78322;SDS011;67583;50.616;-3.404;2023-02-07T01:07:41;21.40;;;8.98;;
78322;SDS011;67583;50.616;-3.404;2023-02-07T01:10:06;22.92;;;10.27;;
78322;SDS011;67583;50.616;-3.404;2023-02-07T01:14:57;16.73;;;8.83;;
78322;SDS011;67583;50.616;-3.404;2023-02-07T01:17:23;20.65;;;9.65;;
78322;SDS011;67583;50.616;-3.404;2023-02-07T01:19:48;18.90;;;8.63;;
78322;SDS011;67583;50.616;-3.404;2023-02-07T01:22:14;17.15;;;8.63;;
78322;SDS011;67583;50.616;-3.404;2023-02-07T01:24:39;21.33;;;8.77;;
78322;SDS011;67583;50.616;-3.404;2023-02-07T01:27:05;22.30;;;9.27;;
78322;SDS011;67583;50.616;-3.404;2023-02-07T01:29:31;15.15;;;8.77;;
78322;SDS011;67583;50.616;-3.404;2023-02-07T01:31:56;19.98;;;9.65;;
78322;SDS011;67583;50.616;-3.404;2023-02-07T01:34:21;18.60;;;9.75;;
78322;SDS011;67583;50.616;-3.404;2023-02-07T01:36:47;18.63;;;9.90;;
78322;SDS011;67583;50.616;-3.404;2023-02-07T01:39:12;14.63;;;7.68;;
78322;SDS011;67583;50.616;-3.404;2023-02-07T01:41:37;20.77;;;10.60;;
78322;SDS011;67583;50.616;-3.404;2023-02-07T01:46:29;17.95;;;10.32;;
78322;SDS011;67583;50.616;-3.404;2023-02-07T01:48:57;23.75;;;9.32;;
78322;SDS011;67583;50.616;-3.404;2023-02-07T01:51:23;23.10;;;9.07;;
78322;SDS011;67583;50.616;-3.404;2023-02-07T01:53:49;19.30;;;9.30;;
78322;SDS011;67583;50.616;-3.404;2023-02-07T01:56:17;17.88;;;8.77;;
78322;SDS011;67583;50.616;-3.404;2023-02-07T01:58:42;24.65;;;11.77;;
78322;SDS011;67583;50.616;-3.404;2023-02-07T02:01:18;24.65;;;12.13;;
78322;SDS011;67583;50.616;-3.404;2023-02-07T02:03:48;25.98;;;11.82;;
78322;SDS011;67583;50.616;-3.404;2023-02-07T02:06:15;18.05;;;9.95;;
78322;SDS011;67583;50.616;-3.404;2023-02-07T02:08:41;21.08;;;9.95;;
78322;SDS011;67583;50.616;-3.404;2023-02-07T02:11:17;20.40;;;9.65;;
78322;SDS011;67583;50.616;-3.404;2023-02-07T02:14:32;17.63;;;8.85;;
78322;SDS011;67583;50.616;-3.404;2023-02-07T02:16:38;19.10;;;10.45;;
78322;SDS011;67583;50.616;-3.404;2023-02-07T02:27:59;21.98;;;10.82;;
78322;SDS011;67583;50.616;-3.404;2023-02-07T02:41:14;24.98;;;10.32;;
78322;SDS011;67583;50.616;-3.404;2023-02-07T02:43:44;16.77;;;9.70;;
78322;SDS011;67583;50.616;-3.404;2023-02-07T02:46:20;23.08;;;9.52;;
78322;SDS011;67583;50.616;-3.404;2023-02-07T02:48:46;18.10;;;9.10;;
78322;SDS011;67583;50.616;-3.404;2023-02-07T02:51:12;22.20;;;11.68;;
78322;SDS011;67583;50.616;-3.404;2023-02-07T02:53:37;17.17;;;9.77;;
78322;SDS011;67583;50.616;-3.404;2023-02-07T03:02:03;19.95;;;9.52;;
78322;SDS011;67583;50.616;-3.404;2023-02-07T03:05:05;15.35;;;9.25;;
78322;SDS011;67583;50.616;-3.404;2023-02-07T03:07:42;22.70;;;10.50;;
78322;SDS011;67583;50.616;-3.404;2023-02-07T03:17:48;21.00;;;9.18;;
78322;SDS011;67583;50.616;-3.404;2023-02-07T03:20:22;15.23;;;8.63;;
78322;SDS011;67583;50.616;-3.404;2023-02-07T03:22:51;12.32;;;7.53;;
78322;SDS011;67583;50.616;-3.404;2023-02-07T03:25:18;12.80;;;8.60;;
78322;SDS011;67583;50.616;-3.404;2023-02-07T03:27:44;11.30;;;7.28;;
78322;SDS011;67583;50.616;-3.404;2023-02-07T03:30:11;19.45;;;8.07;;
78322;SDS011;67583;50.616;-3.404;2023-02-07T03:32:39;10.95;;;7.35;;
78322;SDS011;67583;50.616;-3.404;2023-02-07T03:35:09;12.52;;;6.55;;
78322;SDS011;67583;50.616;-3.404;2023-02-07T03:37:43;10.63;;;7.43;;
78322;SDS011;67583;50.616;-3.404;2023-02-07T03:40:12;8.95;;;6.32;;
78322;SDS011;67583;50.616;-3.404;2023-02-07T03:45:06;11.80;;;7.70;;
78322;SDS011;67583;50.616;-3.404;2023-02-07T03:47:34;10.75;;;6.82;;
78322;SDS011;67583;50.616;-3.404;2023-02-07T03:49:59;10.73;;;7.43;;
78322;SDS011;67583;50.616;-3.404;2023-02-07T03:52:24;12.25;;;7.03;;
78322;SDS011;67583;50.616;-3.404;2023-02-07T03:54:50;11.30;;;7.20;;
78322;SDS011;67583;50.616;-3.404;2023-02-07T03:57:15;12.15;;;8.63;;
78322;SDS011;67583;50.616;-3.404;2023-02-07T03:59:41;15.52;;;7.72;;
78322;SDS011;67583;50.616;-3.404;2023-02-07T04:02:06;13.57;;;8.73;;
78322;SDS011;67583;50.616;-3.404;2023-02-07T04:04:31;12.20;;;7.35;;
78322;SDS011;67583;50.616;-3.404;2023-02-07T04:06:57;13.18;;;6.82;;
78322;SDS011;67583;50.616;-3.404;2023-02-07T04:09:22;12.80;;;6.95;;
78322;SDS011;67583;50.616;-3.404;2023-02-07T04:11:48;12.10;;;8.05;;
78322;SDS011;67583;50.616;-3.404;2023-02-07T04:14:14;11.88;;;6.93;;
78322;SDS011;67583;50.616;-3.404;2023-02-07T04:16:40;8.35;;;5.88;;
78322;SDS011;67583;50.616;-3.404;2023-02-07T04:19:05;13.23;;;6.85;;
78322;SDS011;67583;50.616;-3.404;2023-02-07T04:21:31;15.02;;;8.73;;
78322;SDS011;67583;50.616;-3.404;2023-02-07T04:23:56;12.00;;;6.88;;
78322;SDS011;67583;50.616;-3.404;2023-02-07T04:26:22;12.90;;;6.93;;
78322;SDS011;67583;50.616;-3.404;2023-02-07T04:28:47;10.88;;;7.25;;
78322;SDS011;67583;50.616;-3.404;2023-02-07T04:31:12;11.88;;;7.45;;
78322;SDS011;67583;50.616;-3.404;2023-02-07T04:33:38;13.82;;;8.20;;
78322;SDS011;67583;50.616;-3.404;2023-02-07T04:36:03;14.55;;;7.97;;
78322;SDS011;67583;50.616;-3.404;2023-02-07T04:38:30;13.32;;;7.38;;
78322;SDS011;67583;50.616;-3.404;2023-02-07T04:40:58;12.65;;;7.50;;
78322;SDS011;67583;50.616;-3.404;2023-02-07T04:43:27;13.93;;;7.32;;
78322;SDS011;67583;50.616;-3.404;2023-02-07T04:45:52;14.18;;;7.82;;
78322;SDS011;67583;50.616;-3.404;2023-02-07T04:48:18;9.77;;;6.13;;
78322;SDS011;67583;50.616;-3.404;2023-02-07T04:50:43;10.00;;;6.95;;
78322;SDS011;67583;50.616;-3.404;2023-02-07T04:53:08;11.27;;;7.00;;
78322;SDS011;67583;50.616;-3.404;2023-02-07T04:55:34;11.40;;;7.00;;
78322;SDS011;67583;50.616;-3.404;2023-02-07T04:58:01;8.40;;;5.50;;
78322;SDS011;67583;50.616;-3.404;2023-02-07T05:00:27;9.73;;;5.93;;
78322;SDS011;67583;50.616;-3.404;2023-02-07T05:02:52;9.30;;;5.97;;
78322;SDS011;67583;50.616;-3.404;2023-02-07T05:05:18;10.80;;;6.43;;
78322;SDS011;67583;50.616;-3.404;2023-02-07T05:07:43;12.02;;;6.90;;
78322;SDS011;67583;50.616;-3.404;2023-02-07T05:10:09;10.68;;;5.85;;
78322;SDS011;67583;50.616;-3.404;2023-02-07T05:12:35;11.13;;;6.25;;
78322;SDS011;67583;50.616;-3.404;2023-02-07T05:15:00;10.20;;;6.93;;
78322;SDS011;67583;50.616;-3.404;2023-02-07T05:17:26;9.40;;;6.78;;
78322;SDS011;67583;50.616;-3.404;2023-02-07T05:19:51;12.02;;;7.20;;
78322;SDS011;67583;50.616;-3.404;2023-02-07T05:22:16;8.43;;;5.13;;
78322;SDS011;67583;50.616;-3.404;2023-02-07T05:24:42;9.82;;;5.97;;
78322;SDS011;67583;50.616;-3.404;2023-02-07T05:27:08;10.55;;;6.03;;
78322;SDS011;67583;50.616;-3.404;2023-02-07T05:29:33;9.10;;;6.30;;
78322;SDS011;67583;50.616;-3.404;2023-02-07T05:31:58;12.20;;;6.63;;
78322;SDS011;67583;50.616;-3.404;2023-02-07T05:34:42;8.43;;;5.70;;
78322;SDS011;67583;50.616;-3.404;2023-02-07T05:37:08;7.75;;;4.93;;
78322;SDS011;67583;50.616;-3.404;2023-02-07T05:39:33;9.13;;;5.22;;
78322;SDS011;67583;50.616;-3.404;2023-02-07T05:41:58;6.20;;;4.00;;
78322;SDS011;67583;50.616;-3.404;2023-02-07T05:44:24;11.93;;;7.18;;
78322;SDS011;67583;50.616;-3.404;2023-02-07T05:46:49;9.02;;;5.95;;
78322;SDS011;67583;50.616;-3.404;2023-02-07T05:49:14;10.63;;;5.93;;
78322;SDS011;67583;50.616;-3.404;2023-02-07T05:51:40;6.70;;;4.80;;
78322;SDS011;67583;50.616;-3.404;2023-02-07T05:54:05;11.15;;;5.90;;
78322;SDS011;67583;50.616;-3.404;2023-02-07T05:56:31;11.80;;;7.05;;
78322;SDS011;67583;50.616;-3.404;2023-02-07T05:58:56;10.15;;;6.95;;
78322;SDS011;67583;50.616;-3.404;2023-02-07T06:01:21;10.05;;;6.63;;
78322;SDS011;67583;50.616;-3.404;2023-02-07T06:03:47;8.93;;;5.68;;
78322;SDS011;67583;50.616;-3.404;2023-02-07T06:06:12;7.10;;;5.07;;
78322;SDS011;67583;50.616;-3.404;2023-02-07T06:08:38;8.88;;;4.35;;
78322;SDS011;67583;50.616;-3.404;2023-02-07T06:11:03;7.00;;;4.85;;
78322;SDS011;67583;50.616;-3.404;2023-02-07T06:13:28;6.50;;;4.63;;
78322;SDS011;67583;50.616;-3.404;2023-02-07T06:15:54;9.02;;;4.47;;
78322;SDS011;67583;50.616;-3.404;2023-02-07T06:18:19;7.72;;;4.32;;
78322;SDS011;67583;50.616;-3.404;2023-02-07T06:20:45;6.97;;;4.22;;
78322;SDS011;67583;50.616;-3.404;2023-02-07T06:23:10;5.50;;;3.33;;
78322;SDS011;67583;50.616;-3.404;2023-02-07T06:25:35;5.30;;;2.72;;
78322;SDS011;67583;50.616;-3.404;2023-02-07T06:28:01;4.40;;;3.05;;
78322;SDS011;67583;50.616;-3.404;2023-02-07T06:30:26;4.00;;;2.80;;
78322;SDS011;67583;50.616;-3.404;2023-02-07T06:32:52;10.15;;;4.45;;
78322;SDS011;67583;50.616;-3.404;2023-02-07T06:35:17;7.32;;;3.95;;
78322;SDS011;67583;50.616;-3.404;2023-02-07T06:37:42;5.38;;;2.70;;
78322;SDS011;67583;50.616;-3.404;2023-02-07T06:40:08;5.82;;;3.63;;
78322;SDS011;67583;50.616;-3.404;2023-02-07T06:42:34;4.95;;;2.88;;
78322;SDS011;67583;50.616;-3.404;2023-02-07T06:44:59;4.88;;;2.90;;
78322;SDS011;67583;50.616;-3.404;2023-02-07T06:47:25;5.35;;;3.47;;
78322;SDS011;67583;50.616;-3.404;2023-02-07T06:49:50;5.38;;;3.50;;
78322;SDS011;67583;50.616;-3.404;2023-02-07T06:52:16;4.47;;;2.78;;
78322;SDS011;67583;50.616;-3.404;2023-02-07T06:54:41;3.45;;;2.40;;
78322;SDS011;67583;50.616;-3.404;2023-02-07T06:57:07;5.57;;;2.75;;
78322;SDS011;67583;50.616;-3.404;2023-02-07T06:59:32;3.95;;;2.50;;
78322;SDS011;67583;50.616;-3.404;2023-02-07T07:01:58;4.32;;;2.85;;
78322;SDS011;67583;50.616;-3.404;2023-02-07T07:04:24;6.20;;;3.55;;
78322;SDS011;67583;50.616;-3.404;2023-02-07T07:06:50;6.50;;;3.33;;
78322;SDS011;67583;50.616;-3.404;2023-02-07T07:09:15;5.13;;;3.20;;
78322;SDS011;67583;50.616;-3.404;2023-02-07T07:11:41;5.18;;;3.03;;
78322;SDS011;67583;50.616;-3.404;2023-02-07T07:14:08;4.65;;;2.88;;
78322;SDS011;67583;50.616;-3.404;2023-02-07T07:16:34;6.05;;;3.45;;
78322;SDS011;67583;50.616;-3.404;2023-02-07T07:19:00;5.38;;;3.33;;
78322;SDS011;67583;50.616;-3.404;2023-02-07T07:21:25;8.10;;;4.80;;
78322;SDS011;67583;50.616;-3.404;2023-02-07T07:23:52;7.93;;;4.70;;
78322;SDS011;67583;50.616;-3.404;2023-02-07T07:26:18;6.10;;;4.07;;
78322;SDS011;67583;50.616;-3.404;2023-02-07T07:28:43;5.95;;;3.95;;
78322;SDS011;67583;50.616;-3.404;2023-02-07T07:31:09;8.73;;;4.82;;
78322;SDS011;67583;50.616;-3.404;2023-02-07T07:33:35;9.73;;;4.95;;
78322;SDS011;67583;50.616;-3.404;2023-02-07T07:36:00;7.47;;;4.80;;
78322;SDS011;67583;50.616;-3.404;2023-02-07T07:38:26;9.55;;;5.63;;
78322;SDS011;67583;50.616;-3.404;2023-02-07T07:40:52;9.30;;;5.10;;
78322;SDS011;67583;50.616;-3.404;2023-02-07T07:43:18;6.78;;;4.35;;
78322;SDS011;67583;50.616;-3.404;2023-02-07T07:45:44;7.85;;;4.35;;
78322;SDS011;67583;50.616;-3.404;2023-02-07T07:48:10;6.20;;;3.70;;
78322;SDS011;67583;50.616;-3.404;2023-02-07T07:50:36;8.55;;;4.28;;
78322;SDS011;67583;50.616;-3.404;2023-02-07T07:53:01;7.72;;;4.38;;
78322;SDS011;67583;50.616;-3.404;2023-02-07T07:55:27;6.72;;;4.50;;
78322;SDS011;67583;50.616;-3.404;2023-02-07T07:57:52;7.75;;;5.10;;
78322;SDS011;67583;50.616;-3.404;2023-02-07T08:00:18;5.75;;;4.18;;
78322;SDS011;67583;50.616;-3.404;2023-02-07T08:02:43;6.55;;;4.47;;
78322;SDS011;67583;50.616;-3.404;2023-02-07T08:05:09;5.97;;;4.07;;
78322;SDS011;67583;50.616;-3.404;2023-02-07T08:10:00;6.68;;;4.30;;
78322;SDS011;67583;50.616;-3.404;2023-02-07T08:12:25;6.60;;;4.32;;
78322;SDS011;67583;50.616;-3.404;2023-02-07T08:14:51;5.75;;;3.97;;
78322;SDS011;67583;50.616;-3.404;2023-02-07T08:17:16;8.98;;;5.32;;
78322;SDS011;67583;50.616;-3.404;2023-02-07T08:19:42;8.00;;;4.57;;
78322;SDS011;67583;50.616;-3.404;2023-02-07T08:22:07;7.05;;;5.03;;
78322;SDS011;67583;50.616;-3.404;2023-02-07T08:24:33;8.02;;;5.07;;
78322;SDS011;67583;50.616;-3.404;2023-02-07T08:26:59;10.05;;;5.80;;
78322;SDS011;67583;50.616;-3.404;2023-02-07T08:29:25;6.13;;;4.85;;
78322;SDS011;67583;50.616;-3.404;2023-02-07T08:31:51;6.30;;;5.20;;
78322;SDS011;67583;50.616;-3.404;2023-02-07T08:34:16;8.52;;;5.03;;
78322;SDS011;67583;50.616;-3.404;2023-02-07T08:36:42;7.43;;;5.03;;
78322;SDS011;67583;50.616;-3.404;2023-02-07T08:39:08;7.00;;;4.45;;
78322;SDS011;67583;50.616;-3.404;2023-02-07T08:41:33;9.57;;;5.82;;
78322;SDS011;67583;50.616;-3.404;2023-02-07T08:43:59;8.05;;;5.93;;
78322;SDS011;67583;50.616;-3.404;2023-02-07T08:46:24;7.55;;;4.57;;
78322;SDS011;67583;50.616;-3.404;2023-02-07T08:48:49;8.52;;;4.38;;
78322;SDS011;67583;50.616;-3.404;2023-02-07T08:51:15;10.30;;;5.30;;
78322;SDS011;67583;50.616;-3.404;2023-02-07T08:53:40;10.40;;;7.07;;
78322;SDS011;67583;50.616;-3.404;2023-02-07T08:56:05;10.60;;;6.15;;
78322;SDS011;67583;50.616;-3.404;2023-02-07T08:58:32;7.47;;;4.57;;
78322;SDS011;67583;50.616;-3.404;2023-02-07T09:00:58;8.48;;;5.80;;
78322;SDS011;67583;50.616;-3.404;2023-02-07T09:03:23;7.50;;;4.43;;
78322;SDS011;67583;50.616;-3.404;2023-02-07T09:05:48;8.50;;;5.57;;
78322;SDS011;67583;50.616;-3.404;2023-02-07T09:08:14;6.45;;;4.97;;
78322;SDS011;67583;50.616;-3.404;2023-02-07T09:10:39;6.20;;;4.30;;
78322;SDS011;67583;50.616;-3.404;2023-02-07T09:13:04;6.35;;;4.63;;
78322;SDS011;67583;50.616;-3.404;2023-02-07T09:15:30;5.43;;;4.28;;
78322;SDS011;67583;50.616;-3.404;2023-02-07T09:17:55;8.07;;;4.88;;
78322;SDS011;67583;50.616;-3.404;2023-02-07T09:20:21;5.95;;;4.30;;
78322;SDS011;67583;50.616;-3.404;2023-02-07T09:22:46;4.85;;;3.58;;
78322;SDS011;67583;50.616;-3.404;2023-02-07T09:25:30;4.28;;;3.33;;
78322;SDS011;67583;50.616;-3.404;2023-02-07T09:27:55;5.53;;;3.80;;
78322;SDS011;67583;50.616;-3.404;2023-02-07T09:30:21;5.68;;;3.40;;
78322;SDS011;67583;50.616;-3.404;2023-02-07T09:32:46;6.85;;;4.45;;
78322;SDS011;67583;50.616;-3.404;2023-02-07T09:35:12;9.05;;;4.28;;
78322;SDS011;67583;50.616;-3.404;2023-02-07T09:37:37;4.93;;;4.03;;
78322;SDS011;67583;50.616;-3.404;2023-02-07T09:40:04;6.00;;;4.38;;
78322;SDS011;67583;50.616;-3.404;2023-02-07T09:44:59;7.10;;;5.05;;
78322;SDS011;67583;50.616;-3.404;2023-02-07T09:47:31;7.32;;;4.72;;
78322;SDS011;67583;50.616;-3.404;2023-02-07T09:50:02;5.93;;;4.82;;
78322;SDS011;67583;50.616;-3.404;2023-02-07T09:52:29;7.47;;;4.47;;
78322;SDS011;67583;50.616;-3.404;2023-02-07T09:54:57;8.95;;;5.28;;
78322;SDS011;67583;50.616;-3.404;2023-02-07T09:57:29;7.47;;;4.75;;
78322;SDS011;67583;50.616;-3.404;2023-02-07T10:00:23;11.13;;;5.55;;
78322;SDS011;67583;50.616;-3.404;2023-02-07T10:02:53;9.38;;;4.57;;
78322;SDS011;67583;50.616;-3.404;2023-02-07T10:08:07;5.28;;;3.80;;
78322;SDS011;67583;50.616;-3.404;2023-02-07T10:11:22;4.68;;;3.53;;
78322;SDS011;67583;50.616;-3.404;2023-02-07T10:16:10;7.28;;;4.28;;
78322;SDS011;67583;50.616;-3.404;2023-02-07T10:18:45;6.53;;;4.22;;
78322;SDS011;67583;50.616;-3.404;2023-02-07T10:31:43;5.95;;;3.90;;
78322;SDS011;67583;50.616;-3.404;2023-02-07T10:34:13;8.55;;;4.95;;
78322;SDS011;67583;50.616;-3.404;2023-02-07T10:36:47;6.38;;;4.25;;
78322;SDS011;67583;50.616;-3.404;2023-02-07T10:41:50;4.95;;;3.75;;
78322;SDS011;67583;50.616;-3.404;2023-02-07T10:44:19;5.43;;;3.55;;
78322;SDS011;67583;50.616;-3.404;2023-02-07T10:46:46;6.00;;;3.60;;
78322;SDS011;67583;50.616;-3.404;2023-02-07T10:49:23;5.38;;;3.75;;
78322;SDS011;67583;50.616;-3.404;2023-02-07T10:51:51;5.45;;;4.10;;
78322;SDS011;67583;50.616;-3.404;2023-02-07T10:54:19;6.18;;;4.10;;
78322;SDS011;67583;50.616;-3.404;2023-02-07T10:56:45;8.07;;;4.68;;
78322;SDS011;67583;50.616;-3.404;2023-02-07T11:01:53;6.30;;;4.18;;
78322;SDS011;67583;50.616;-3.404;2023-02-07T11:04:23;6.20;;;4.55;;
78322;SDS011;67583;50.616;-3.404;2023-02-07T11:07:02;5.72;;;4.18;;
78322;SDS011;67583;50.616;-3.404;2023-02-07T11:09:29;9.50;;;5.65;;
78322;SDS011;67583;50.616;-3.404;2023-02-07T11:11:56;7.65;;;5.22;;
78322;SDS011;67583;50.616;-3.404;2023-02-07T11:14:23;6.88;;;5.25;;
78322;SDS011;67583;50.616;-3.404;2023-02-07T11:16:56;6.38;;;5.47;;
78322;SDS011;67583;50.616;-3.404;2023-02-07T11:19:23;6.20;;;5.10;;
78322;SDS011;67583;50.616;-3.404;2023-02-07T11:21:50;7.75;;;6.35;;
78322;SDS011;67583;50.616;-3.404;2023-02-07T11:26:50;9.10;;;5.07;;
78322;SDS011;67583;50.616;-3.404;2023-02-07T11:29:19;7.63;;;5.40;;
78322;SDS011;67583;50.616;-3.404;2023-02-07T11:31:45;10.48;;;7.00;;
78322;SDS011;67583;50.616;-3.404;2023-02-07T11:36:45;8.18;;;5.32;;
78322;SDS011;67583;50.616;-3.404;2023-02-07T11:39:15;9.77;;;5.65;;
78322;SDS011;67583;50.616;-3.404;2023-02-07T11:44:17;6.93;;;5.70;;
78322;SDS011;67583;50.616;-3.404;2023-02-07T11:46:45;7.57;;;5.57;;
78322;SDS011;67583;50.616;-3.404;2023-02-07T11:49:26;9.48;;;7.10;;
78322;SDS011;67583;50.616;-3.404;2023-02-07T11:51:59;7.22;;;4.90;;
78322;SDS011;67583;50.616;-3.404;2023-02-07T11:54:25;7.40;;;5.10;;
78322;SDS011;67583;50.616;-3.404;2023-02-07T11:56:53;6.80;;;4.93;;
78322;SDS011;67583;50.616;-3.404;2023-02-07T11:59:25;6.38;;;4.88;;
78322;SDS011;67583;50.616;-3.404;2023-02-07T12:01:56;6.47;;;5.00;;
78322;SDS011;67583;50.616;-3.404;2023-02-07T12:04:27;8.93;;;6.43;;
78322;SDS011;67583;50.616;-3.404;2023-02-07T12:07:00;8.85;;;6.10;;
78322;SDS011;67583;50.616;-3.404;2023-02-07T12:09:36;8.55;;;5.57;;
78322;SDS011;67583;50.616;-3.404;2023-02-07T12:14:50;6.38;;;4.40;;
78322;SDS011;67583;50.616;-3.404;2023-02-07T12:17:23;5.93;;;4.55;;
78322;SDS011;67583;50.616;-3.404;2023-02-07T12:19:57;7.88;;;5.40;;
78322;SDS011;67583;50.616;-3.404;2023-02-07T12:22:30;8.23;;;4.95;;
78322;SDS011;67583;50.616;-3.404;2023-02-07T12:25:47;9.95;;;6.97;;
78322;SDS011;67583;50.616;-3.404;2023-02-07T12:27:50;7.18;;;5.97;;
78322;SDS011;67583;50.616;-3.404;2023-02-07T12:30:25;9.50;;;6.72;;
78322;SDS011;67583;50.616;-3.404;2023-02-07T12:35:29;6.57;;;5.32;;
78322;SDS011;67583;50.616;-3.404;2023-02-07T12:38:02;7.45;;;6.50;;
78322;SDS011;67583;50.616;-3.404;2023-02-07T12:40:55;9.48;;;5.38;;
78322;SDS011;67583;50.616;-3.404;2023-02-07T12:43:31;7.10;;;5.55;;
78322;SDS011;67583;50.616;-3.404;2023-02-07T13:02:43;10.73;;;4.53;;
78322;SDS011;67583;50.616;-3.404;2023-02-07T13:13:24;10.13;;;4.90;;
78322;SDS011;67583;50.616;-3.404;2023-02-07T13:16:10;13.07;;;6.13;;
78322;SDS011;67583;50.616;-3.404;2023-02-07T13:19:18;14.35;;;4.57;;
78322;SDS011;67583;50.616;-3.404;2023-02-07T13:24:22;12.77;;;5.72;;
78322;SDS011;67583;50.616;-3.404;2023-02-07T13:27:02;13.18;;;4.53;;
78322;SDS011;67583;50.616;-3.404;2023-02-07T13:29:34;14.68;;;5.65;;
78322;SDS011;67583;50.616;-3.404;2023-02-07T13:32:13;21.42;;;5.78;;
78322;SDS011;67583;50.616;-3.404;2023-02-07T13:37:36;9.80;;;4.85;;
78322;SDS011;67583;50.616;-3.404;2023-02-07T13:41:14;10.77;;;4.70;;
78322;SDS011;67583;50.616;-3.404;2023-02-07T13:46:25;17.83;;;4.55;;
78322;SDS011;67583;50.616;-3.404;2023-02-07T13:52:26;16.25;;;5.85;;
78322;SDS011;67583;50.616;-3.404;2023-02-07T13:55:57;16.05;;;5.32;;
78322;SDS011;67583;50.616;-3.404;2023-02-07T13:57:59;17.23;;;6.40;;
78322;SDS011;67583;50.616;-3.404;2023-02-07T14:03:18;17.02;;;7.15;;
78322;SDS011;67583;50.616;-3.404;2023-02-07T14:05:45;19.88;;;7.20;;
78322;SDS011;67583;50.616;-3.404;2023-02-07T14:10:46;22.10;;;7.55;;
78322;SDS011;67583;50.616;-3.404;2023-02-07T14:13:31;29.70;;;9.00;;
78322;SDS011;67583;50.616;-3.404;2023-02-07T14:21:02;19.00;;;7.75;;
78322;SDS011;67583;50.616;-3.404;2023-02-07T14:31:48;17.42;;;7.35;;
78322;SDS011;67583;50.616;-3.404;2023-02-07T14:34:14;17.15;;;6.57;;
78322;SDS011;67583;50.616;-3.404;2023-02-07T14:36:40;16.60;;;6.18;;
78322;SDS011;67583;50.616;-3.404;2023-02-07T14:41:35;23.52;;;6.15;;
78322;SDS011;67583;50.616;-3.404;2023-02-07T14:44:02;6.60;;;4.80;;
78322;SDS011;67583;50.616;-3.404;2023-02-07T14:46:34;22.50;;;6.53;;
78322;SDS011;67583;50.616;-3.404;2023-02-07T14:49:12;15.57;;;5.55;;
78322;SDS011;67583;50.616;-3.404;2023-02-07T14:51:51;19.00;;;5.60;;
78322;SDS011;67583;50.616;-3.404;2023-02-07T14:56:59;15.88;;;5.95;;
78322;SDS011;67583;50.616;-3.404;2023-02-07T14:59:27;12.60;;;4.93;;
78322;SDS011;67583;50.616;-3.404;2023-02-07T15:01:56;16.50;;;5.78;;
78322;SDS011;67583;50.616;-3.404;2023-02-07T15:05:10;13.90;;;5.22;;
78322;SDS011;67583;50.616;-3.404;2023-02-07T15:07:55;8.68;;;4.38;;
78322;SDS011;67583;50.616;-3.404;2023-02-07T15:18:55;14.10;;;4.10;;
78322;SDS011;67583;50.616;-3.404;2023-02-07T15:21:33;9.73;;;3.92;;
78322;SDS011;67583;50.616;-3.404;2023-02-07T15:24:15;9.90;;;4.43;;
78322;SDS011;67583;50.616;-3.404;2023-02-07T15:26:41;13.57;;;4.15;;
78322;SDS011;67583;50.616;-3.404;2023-02-07T15:29:18;10.13;;;4.15;;
78322;SDS011;67583;50.616;-3.404;2023-02-07T15:31:47;7.05;;;3.80;;
78322;SDS011;67583;50.616;-3.404;2023-02-07T15:36:45;13.02;;;4.90;;
78322;SDS011;67583;50.616;-3.404;2023-02-07T15:39:13;10.88;;;4.25;;
78322;SDS011;67583;50.616;-3.404;2023-02-07T15:41:42;14.50;;;4.68;;
78322;SDS011;67583;50.616;-3.404;2023-02-07T15:46:55;8.68;;;4.07;;
78322;SDS011;67583;50.616;-3.404;2023-02-07T15:49:24;11.25;;;4.40;;
78322;SDS011;67583;50.616;-3.404;2023-02-07T15:51:51;14.57;;;4.30;;
78322;SDS011;67583;50.616;-3.404;2023-02-07T15:54:17;10.73;;;3.45;;
78322;SDS011;67583;50.616;-3.404;2023-02-07T15:56:43;9.02;;;4.35;;
78322;SDS011;67583;50.616;-3.404;2023-02-07T15:59:10;12.10;;;4.85;;
78322;SDS011;67583;50.616;-3.404;2023-02-07T16:01:42;9.20;;;3.85;;
78322;SDS011;67583;50.616;-3.404;2023-02-07T16:04:15;12.27;;;4.97;;
78322;SDS011;67583;50.616;-3.404;2023-02-07T16:06:52;11.10;;;4.95;;
78322;SDS011;67583;50.616;-3.404;2023-02-07T16:09:35;16.70;;;5.63;;
78322;SDS011;67583;50.616;-3.404;2023-02-07T16:12:19;10.40;;;4.88;;
78322;SDS011;67583;50.616;-3.404;2023-02-07T16:15:19;13.93;;;4.45;;
78322;SDS011;67583;50.616;-3.404;2023-02-07T16:17:53;11.13;;;4.78;;
78322;SDS011;67583;50.616;-3.404;2023-02-07T16:22:44;12.60;;;4.55;;
78322;SDS011;67583;50.616;-3.404;2023-02-07T16:27:47;9.38;;;4.18;;
78322;SDS011;67583;50.616;-3.404;2023-02-07T16:30:14;15.68;;;4.32;;
78322;SDS011;67583;50.616;-3.404;2023-02-07T16:32:44;10.35;;;4.32;;
78322;SDS011;67583;50.616;-3.404;2023-02-07T16:35:21;15.68;;;5.20;;
78322;SDS011;67583;50.616;-3.404;2023-02-07T16:37:48;10.35;;;4.95;;
78322;SDS011;67583;50.616;-3.404;2023-02-07T16:42:40;10.68;;;4.30;;
78322;SDS011;67583;50.616;-3.404;2023-02-07T16:45:09;8.73;;;3.65;;
78322;SDS011;67583;50.616;-3.404;2023-02-07T16:47:48;11.00;;;4.80;;
78322;SDS011;67583;50.616;-3.404;2023-02-07T16:52:44;13.63;;;4.78;;
78322;SDS011;67583;50.616;-3.404;2023-02-07T16:55:10;10.25;;;5.20;;
78322;SDS011;67583;50.616;-3.404;2023-02-07T17:00:02;15.35;;;6.93;;
78322;SDS011;67583;50.616;-3.404;2023-02-07T17:02:29;8.90;;;5.25;;
78322;SDS011;67583;50.616;-3.404;2023-02-07T17:04:57;17.75;;;5.13;;
78322;SDS011;67583;50.616;-3.404;2023-02-07T17:09:47;8.80;;;4.67;;
78322;SDS011;67583;50.616;-3.404;2023-02-07T17:12:14;9.68;;;4.63;;
78322;SDS011;67583;50.616;-3.404;2023-02-07T17:17:05;9.55;;;5.75;;
78322;SDS011;67583;50.616;-3.404;2023-02-07T17:21:56;13.35;;;4.38;;
78322;SDS011;67583;50.616;-3.404;2023-02-07T17:24:21;9.02;;;5.13;;
78322;SDS011;67583;50.616;-3.404;2023-02-07T17:29:13;11.65;;;4.65;;
78322;SDS011;67583;50.616;-3.404;2023-02-07T17:31:40;10.10;;;5.10;;
78322;SDS011;67583;50.616;-3.404;2023-02-07T17:34:06;13.07;;;7.20;;